createdAt,value
2018-06-12T00:01:31.517Z,996.93
2018-06-12T00:02:31.512Z,996.92
2018-06-12T00:04:25.013Z,996.94
2018-06-12T00:05:25.014Z,996.92
2018-06-12T00:07:18.706Z,996.95
2018-06-12T00:08:18.717Z,996.95
2018-06-12T00:10:12.217Z,996.94
2018-06-12T00:11:12.199Z,996.93
2018-06-12T00:13:05.772Z,996.93
2018-06-12T00:14:05.692Z,996.91
2018-06-12T00:15:05.723Z,996.94
2018-06-12T00:16:05.745Z,996.95
2018-06-12T00:17:05.772Z,996.91
2018-06-12T00:18:05.792Z,996.95
2018-06-12T00:19:05.820Z,996.92
2018-06-12T00:20:05.861Z,996.88
2018-06-12T00:21:05.877Z,996.90
2018-06-12T00:22:05.896Z,996.88
2018-06-12T00:23:05.930Z,996.88
2018-06-12T00:24:05.952Z,996.87
2018-06-12T00:25:05.973Z,996.85
2018-06-12T00:26:06.013Z,996.87
2018-06-12T00:27:06.018Z,996.85
2018-06-12T00:28:06.057Z,996.85
2018-06-12T00:29:06.073Z,996.89
2018-06-12T00:30:06.095Z,996.86
2018-06-12T00:31:06.129Z,996.83
2018-06-12T00:32:06.152Z,996.85
2018-06-12T00:33:06.179Z,996.87
2018-06-12T00:34:06.206Z,996.89
2018-06-12T00:35:06.222Z,996.91
2018-06-12T00:36:06.249Z,996.94
2018-06-12T00:37:06.288Z,996.99
2018-06-12T00:38:06.313Z,997.00
2018-06-12T00:39:06.333Z,996.99
2018-06-12T00:40:06.352Z,997.06
2018-06-12T00:41:06.375Z,997.04
2018-06-12T00:42:06.406Z,997.02
2018-06-12T00:43:06.449Z,997.07
2018-06-12T00:44:06.449Z,997.06
2018-06-12T00:45:06.495Z,997.10
2018-06-12T00:46:06.513Z,997.12
2018-06-12T00:47:06.530Z,997.07
2018-06-12T00:48:06.556Z,997.11
2018-06-12T00:49:06.581Z,997.11
2018-06-12T00:50:06.615Z,997.10
2018-06-12T00:51:06.638Z,997.13
2018-06-12T00:52:06.657Z,997.18
2018-06-12T00:53:06.682Z,997.13
2018-06-12T00:54:06.702Z,997.15
2018-06-12T00:55:06.728Z,997.13
2018-06-12T00:56:06.775Z,997.18
2018-06-12T00:57:06.785Z,997.15
2018-06-12T00:58:06.810Z,997.20
2018-06-12T00:59:06.837Z,997.19
2018-06-12T01:00:06.859Z,997.16
2018-06-12T01:01:06.888Z,997.18
2018-06-12T01:02:06.909Z,997.22
2018-06-12T01:03:06.939Z,997.27
2018-06-12T01:04:06.960Z,997.25
2018-06-12T01:05:06.985Z,997.28
2018-06-12T01:06:07.008Z,997.33
2018-06-12T01:07:07.043Z,997.32
2018-06-12T01:08:07.061Z,997.32
2018-06-12T01:09:07.092Z,997.31
2018-06-12T01:10:07.107Z,997.30
2018-06-12T01:11:07.132Z,997.34
2018-06-12T01:12:07.161Z,997.34
2018-06-12T01:13:07.195Z,997.33
2018-06-12T01:14:07.209Z,997.36
2018-06-12T01:15:07.257Z,997.35
2018-06-12T01:16:07.260Z,997.39
2018-06-12T01:17:07.292Z,997.39
2018-06-12T01:18:07.314Z,997.42
2018-06-12T01:19:07.347Z,997.40
2018-06-12T01:20:07.371Z,997.38
2018-06-12T01:21:07.402Z,997.36
2018-06-12T01:22:07.412Z,997.36
2018-06-12T01:23:07.434Z,997.33
2018-06-12T01:24:07.469Z,997.36
2018-06-12T01:25:07.488Z,997.37
2018-06-12T01:26:07.511Z,997.28
2018-06-12T01:27:07.541Z,997.29
2018-06-12T01:28:07.559Z,997.35
2018-06-12T01:29:07.610Z,997.31
2018-06-12T01:30:07.635Z,997.26
2018-06-12T01:31:07.640Z,997.28
2018-06-12T01:32:07.660Z,997.26
2018-06-12T01:33:07.688Z,997.29
2018-06-12T01:34:07.710Z,997.30
2018-06-12T01:35:07.749Z,997.30
2018-06-12T01:36:07.775Z,997.30
2018-06-12T01:37:07.789Z,997.26
2018-06-12T01:38:07.817Z,997.25
2018-06-12T01:39:07.840Z,997.17
2018-06-12T01:40:07.941Z,997.24
2018-06-12T01:41:07.898Z,997.16
2018-06-12T01:42:07.916Z,997.20
2018-06-12T01:43:07.943Z,997.18
2018-06-12T01:44:07.966Z,997.17
2018-06-12T01:45:07.999Z,997.20
2018-06-12T01:46:08.012Z,997.20
2018-06-12T01:47:08.041Z,997.21
2018-06-12T01:48:08.069Z,997.18
2018-06-12T01:49:08.094Z,997.16
2018-06-12T01:50:08.117Z,997.14
2018-06-12T01:51:08.148Z,997.13
2018-06-12T01:52:08.172Z,997.09
2018-06-12T01:53:08.204Z,997.07
2018-06-12T01:54:08.218Z,997.06
2018-06-12T01:55:08.248Z,997.00
2018-06-12T01:56:08.283Z,997.00
2018-06-12T01:57:08.297Z,997.00
2018-06-12T01:58:08.323Z,997.01
2018-06-12T01:59:08.356Z,996.97
2018-06-12T02:00:08.372Z,997.01
2018-06-12T02:01:08.406Z,996.99
2018-06-12T02:02:08.425Z,997.03
2018-06-12T02:03:08.446Z,996.99
2018-06-12T02:04:08.479Z,997.01
2018-06-12T02:05:08.630Z,997.02
2018-06-12T02:06:08.533Z,997.00
2018-06-12T02:07:08.548Z,997.00
2018-06-12T02:08:08.572Z,997.00
2018-06-12T02:13:47.461Z,996.96
2018-06-12T02:14:47.480Z,996.92
2018-06-12T02:16:40.976Z,996.92
2018-06-12T02:17:40.964Z,996.91
2018-06-12T02:19:34.471Z,996.88
2018-06-12T02:20:34.479Z,996.85
2018-06-12T02:22:28.976Z,996.88
2018-06-12T02:23:28.966Z,996.86
2018-06-12T02:25:23.457Z,996.81
2018-06-12T02:26:23.455Z,996.80
2018-06-12T02:28:17.947Z,996.84
2018-06-12T02:29:17.964Z,996.76
2018-06-12T02:31:12.465Z,996.80
2018-06-12T02:32:12.472Z,996.84
2018-06-12T02:34:06.963Z,996.80
2018-06-12T02:35:06.950Z,996.78
2018-06-12T02:37:00.430Z,996.80
2018-06-12T02:38:00.433Z,996.79
2018-06-12T02:39:53.919Z,996.77
2018-06-12T02:40:53.906Z,996.77
2018-06-12T02:42:47.395Z,996.74
2018-06-12T02:43:47.390Z,996.77
2018-06-12T02:45:40.898Z,996.72
2018-06-12T02:46:40.896Z,996.69
2018-06-12T02:48:35.375Z,996.70
2018-06-12T02:49:35.377Z,996.73
2018-06-12T02:51:28.866Z,996.76
2018-06-12T02:52:28.864Z,996.74
2018-06-12T02:54:22.354Z,996.70
2018-06-12T02:55:22.361Z,996.70
2018-06-12T02:57:16.821Z,996.68
2018-06-12T02:58:16.823Z,996.69
2018-06-12T03:00:10.313Z,996.72
2018-06-12T03:01:10.318Z,996.72
2018-06-12T03:03:03.820Z,996.73
2018-06-12T03:04:03.814Z,996.73
2018-06-12T03:05:57.313Z,996.72
2018-06-12T03:06:57.312Z,996.78
2018-06-12T03:08:51.818Z,996.75
2018-06-12T03:09:51.795Z,996.76
2018-06-12T03:11:46.316Z,996.72
2018-06-12T03:12:46.313Z,996.68
2018-06-12T03:14:40.780Z,996.71
2018-06-12T03:15:40.786Z,996.75
2018-06-12T03:17:35.274Z,996.71
2018-06-12T03:18:35.264Z,996.71
2018-06-12T03:20:29.262Z,996.67
2018-06-12T03:21:28.853Z,996.66
2018-06-12T03:23:22.401Z,996.62
2018-06-12T03:24:22.328Z,996.59
2018-06-12T03:26:16.330Z,996.56
2018-06-12T03:27:15.849Z,996.53
2018-06-12T03:29:09.339Z,996.56
2018-06-12T03:30:09.383Z,996.52
2018-06-12T03:32:03.854Z,996.55
2018-06-12T03:33:03.828Z,996.52
2018-06-12T03:34:59.350Z,996.53
2018-06-12T03:35:59.350Z,996.56
2018-06-12T03:37:53.820Z,996.56
2018-06-12T03:38:53.825Z,996.55
2018-06-12T03:40:48.301Z,996.52
2018-06-12T03:41:48.303Z,996.53
2018-06-12T03:43:41.804Z,996.50
2018-06-12T03:44:41.800Z,996.50
2018-06-12T03:46:35.286Z,996.52
2018-06-12T03:47:35.389Z,996.53
2018-06-12T03:49:28.790Z,996.48
2018-06-12T03:50:28.782Z,996.49
2018-06-12T03:51:28.807Z,996.44
2018-06-12T03:52:28.826Z,996.45
2018-06-12T03:53:28.851Z,996.49
2018-06-12T03:54:28.872Z,996.48
2018-06-12T03:55:28.899Z,996.49
2018-06-12T03:56:28.932Z,996.50
2018-06-12T03:57:28.998Z,996.50
2018-06-12T03:58:28.978Z,996.52
2018-06-12T03:59:28.999Z,996.51
2018-06-12T04:00:29.027Z,996.50
2018-06-12T04:01:29.182Z,996.53
2018-06-12T04:02:29.077Z,996.51
2018-06-12T04:03:29.100Z,996.50
2018-06-12T04:04:29.131Z,996.51
2018-06-12T04:05:29.152Z,996.53
2018-06-12T04:06:29.170Z,996.50
2018-06-12T04:07:29.204Z,996.53
2018-06-12T04:08:29.248Z,996.54
2018-06-12T04:09:29.282Z,996.54
2018-06-12T04:10:29.276Z,996.53
2018-06-12T04:11:29.300Z,996.56
2018-06-12T04:12:29.330Z,996.56
2018-06-12T04:13:29.355Z,996.58
2018-06-12T04:14:29.377Z,996.57
2018-06-12T04:15:29.397Z,996.58
2018-06-12T04:16:29.427Z,996.59
2018-06-12T04:17:29.453Z,996.61
2018-06-12T04:18:29.479Z,996.57
2018-06-12T04:19:29.504Z,996.58
2018-06-12T04:20:29.582Z,996.56
2018-06-12T04:21:29.553Z,996.54
2018-06-12T04:22:29.580Z,996.57
2018-06-12T04:23:29.604Z,996.57
2018-06-12T04:24:29.635Z,996.56
2018-06-12T04:25:29.661Z,996.54
2018-06-12T04:26:29.677Z,996.58
2018-06-12T04:27:29.699Z,996.56
2018-06-12T04:28:29.731Z,996.56
2018-06-12T04:29:29.750Z,996.58
2018-06-12T04:30:29.787Z,996.52
2018-06-12T04:31:29.802Z,996.56
2018-06-12T04:32:29.830Z,996.59
2018-06-12T04:33:29.862Z,996.56
2018-06-12T04:34:29.875Z,996.54
2018-06-12T04:35:29.906Z,996.55
2018-06-12T04:36:29.928Z,996.53
2018-06-12T04:37:29.950Z,996.51
2018-06-12T04:38:30.013Z,996.54
2018-06-12T04:39:30.015Z,996.56
2018-06-12T04:40:30.028Z,996.58
2018-06-12T04:41:30.058Z,996.55
2018-06-12T04:42:30.085Z,996.60
2018-06-12T04:43:30.105Z,996.58
2018-06-12T04:44:30.138Z,996.58
2018-06-12T04:45:30.154Z,996.56
2018-06-12T04:46:30.184Z,996.57
2018-06-12T04:47:30.215Z,996.57
2018-06-12T04:48:30.229Z,996.60
2018-06-12T04:49:30.258Z,996.60
2018-06-12T04:50:30.275Z,996.59
2018-06-12T04:51:30.310Z,996.57
2018-06-12T04:52:30.330Z,996.57
2018-06-12T04:53:30.357Z,996.57
2018-06-12T04:54:30.377Z,996.56
2018-06-12T04:55:30.403Z,996.55
2018-06-12T04:56:30.429Z,996.60
2018-06-12T04:57:30.462Z,996.58
2018-06-12T04:58:30.480Z,996.56
2018-06-12T04:59:30.507Z,996.59
2018-06-12T05:00:30.532Z,996.57
2018-06-12T05:01:30.557Z,996.57
2018-06-12T05:02:30.582Z,996.61
2018-06-12T05:03:30.626Z,996.66
2018-06-12T05:04:30.631Z,996.66
2018-06-12T05:05:30.653Z,996.66
2018-06-12T05:06:30.681Z,996.66
2018-06-12T05:07:30.708Z,996.68
2018-06-12T05:08:30.727Z,996.65
2018-06-12T05:09:30.756Z,996.66
2018-06-12T05:10:30.794Z,996.65
2018-06-12T05:11:30.803Z,996.62
2018-06-12T05:12:30.832Z,996.64
2018-06-12T05:13:30.852Z,996.66
2018-06-12T05:14:30.881Z,996.65
2018-06-12T05:15:30.906Z,996.67
2018-06-12T05:16:30.928Z,996.65
2018-06-12T05:17:31.003Z,996.63
2018-06-12T05:18:30.976Z,996.62
2018-06-12T05:19:31.006Z,996.62
2018-06-12T05:20:31.041Z,996.62
2018-06-12T05:21:31.054Z,996.64
2018-06-12T05:22:31.078Z,996.67
2018-06-12T05:23:31.105Z,996.70
2018-06-12T05:24:31.130Z,996.72
2018-06-12T05:25:31.220Z,996.74
2018-06-12T05:26:31.200Z,996.75
2018-06-12T05:27:31.200Z,996.78
2018-06-12T05:28:31.229Z,996.74
2018-06-12T05:29:31.253Z,996.77
2018-06-12T05:30:31.280Z,996.78
2018-06-12T05:31:31.305Z,996.80
2018-06-12T05:32:31.329Z,996.80
2018-06-12T05:33:31.359Z,996.81
2018-06-12T05:34:31.380Z,996.82
2018-06-12T05:35:31.407Z,996.87
2018-06-12T05:36:31.434Z,996.86
2018-06-12T05:37:31.459Z,996.89
2018-06-12T05:38:31.477Z,996.87
2018-06-12T05:39:31.512Z,996.89
2018-06-12T05:40:31.533Z,996.95
2018-06-12T05:41:31.557Z,996.92
2018-06-12T05:42:31.578Z,996.95
2018-06-12T05:43:31.606Z,996.95
2018-06-12T05:44:31.630Z,996.96
2018-06-12T05:45:31.657Z,996.94
2018-06-12T05:46:31.678Z,996.96
2018-06-12T05:47:31.712Z,996.94
2018-06-12T05:48:31.727Z,997.01
2018-06-12T05:49:31.753Z,996.99
2018-06-12T05:50:31.776Z,996.97
2018-06-12T05:51:31.806Z,996.99
2018-06-12T05:52:31.828Z,997.01
2018-06-12T05:53:31.856Z,997.04
2018-06-12T05:54:31.881Z,996.97
2018-06-12T05:55:31.905Z,997.01
2018-06-12T05:56:31.929Z,997.02
2018-06-12T05:57:31.956Z,997.05
2018-06-12T05:58:31.985Z,997.03
2018-06-12T05:59:32.016Z,997.04
2018-06-12T06:00:32.034Z,997.04
2018-06-12T06:01:32.055Z,997.04
2018-06-12T06:02:32.081Z,997.05
2018-06-12T06:03:32.105Z,997.03
2018-06-12T06:04:32.136Z,997.02
2018-06-12T06:05:32.181Z,997.05
2018-06-12T06:06:32.195Z,997.05
2018-06-12T06:07:32.201Z,997.06
2018-06-12T06:08:32.229Z,997.07
2018-06-12T06:09:32.260Z,997.07
2018-06-12T06:10:32.317Z,997.09
2018-06-12T06:11:32.301Z,997.08
2018-06-12T06:12:32.334Z,997.11
2018-06-12T06:13:32.354Z,997.08
2018-06-12T06:14:32.381Z,997.07
2018-06-12T06:15:32.402Z,997.12
2018-06-12T06:16:32.449Z,997.12
2018-06-12T06:17:32.454Z,997.11
2018-06-12T06:18:32.481Z,997.16
2018-06-12T06:19:32.508Z,997.10
2018-06-12T06:20:32.580Z,997.14
2018-06-12T06:21:32.558Z,997.11
2018-06-12T06:22:32.625Z,997.10
2018-06-12T06:23:32.607Z,997.09
2018-06-12T06:24:32.632Z,997.13
2018-06-12T06:25:32.658Z,997.16
2018-06-12T06:26:32.705Z,997.16
2018-06-12T06:27:32.712Z,997.17
2018-06-12T06:28:32.733Z,997.15
2018-06-12T06:29:32.764Z,997.16
2018-06-12T06:30:32.779Z,997.15
2018-06-12T06:31:32.803Z,997.15
2018-06-12T06:32:32.828Z,997.18
2018-06-12T06:33:32.852Z,997.18
2018-06-12T06:34:32.890Z,997.16
2018-06-12T06:35:32.907Z,997.19
2018-06-12T06:36:32.926Z,997.14
2018-06-12T06:37:32.961Z,997.19
2018-06-12T06:38:32.975Z,997.20
2018-06-12T06:39:33.017Z,997.19
2018-06-12T06:40:33.046Z,997.21
2018-06-12T06:41:33.055Z,997.17
2018-06-12T06:42:33.842Z,997.17
2018-06-12T06:43:33.108Z,997.15
2018-06-12T06:44:33.130Z,997.16
2018-06-12T06:45:33.154Z,997.17
2018-06-12T06:46:33.183Z,997.15
2018-06-12T06:47:33.209Z,997.16
2018-06-12T06:48:33.250Z,997.15
2018-06-12T06:49:33.268Z,997.12
2018-06-12T06:50:33.277Z,997.13
2018-06-12T06:51:33.307Z,997.14
2018-06-12T06:52:33.330Z,997.14
2018-06-12T06:53:33.379Z,997.15
2018-06-12T06:54:33.389Z,997.15
2018-06-12T06:55:33.410Z,997.15
2018-06-12T06:56:33.432Z,997.16
2018-06-12T06:57:33.452Z,997.19
2018-06-12T06:58:33.475Z,997.19
2018-06-12T06:59:33.515Z,997.18
2018-06-12T07:00:33.535Z,997.21
2018-06-12T07:01:33.554Z,997.20
2018-06-12T07:02:33.581Z,997.21
2018-06-12T07:03:33.605Z,997.20
2018-06-12T07:04:33.633Z,997.19
2018-06-12T07:05:33.655Z,997.23
2018-06-12T07:06:33.679Z,997.19
2018-06-12T07:07:33.703Z,997.15
2018-06-12T07:08:33.729Z,997.17
2018-06-12T07:09:33.756Z,997.15
2018-06-12T07:10:33.779Z,997.15
2018-06-12T07:11:33.798Z,997.14
2018-06-12T07:12:33.829Z,997.14
2018-06-12T07:13:33.858Z,997.16
2018-06-12T07:14:33.875Z,997.14
2018-06-12T07:15:33.905Z,997.16
2018-06-12T07:16:33.930Z,997.15
2018-06-12T07:17:33.954Z,997.15
2018-06-12T07:18:33.974Z,997.15
2018-06-12T07:19:34.003Z,997.16
2018-06-12T07:20:34.031Z,997.17
2018-06-12T07:21:34.047Z,997.15
2018-06-12T07:22:34.077Z,997.15
2018-06-12T07:23:34.104Z,997.15
2018-06-12T07:24:34.130Z,997.13
2018-06-12T07:25:34.157Z,997.15
2018-06-12T07:26:34.174Z,997.14
2018-06-12T07:27:34.207Z,997.18
2018-06-12T07:28:34.231Z,997.18
2018-06-12T07:29:34.253Z,997.16
2018-06-12T07:30:34.278Z,997.15
2018-06-12T07:31:34.314Z,997.15
2018-06-12T07:32:34.334Z,997.16
2018-06-12T07:33:34.352Z,997.16
2018-06-12T07:34:34.384Z,997.17
2018-06-12T07:35:34.406Z,997.16
2018-06-12T07:36:34.427Z,997.16
2018-06-12T07:37:34.455Z,997.18
2018-06-12T07:38:34.477Z,997.20
2018-06-12T07:39:34.501Z,997.21
2018-06-12T07:40:34.523Z,997.21
2018-06-12T07:41:34.547Z,997.20
2018-06-12T07:42:34.580Z,997.23
2018-06-12T07:43:34.668Z,997.23
2018-06-12T07:44:34.630Z,997.22
2018-06-12T07:45:34.661Z,997.21
2018-06-12T07:46:34.685Z,997.24
2018-06-12T07:47:34.708Z,997.21
2018-06-12T07:48:34.727Z,997.19
2018-06-12T07:49:34.753Z,997.22
2018-06-12T07:50:34.779Z,997.22
2018-06-12T07:51:34.807Z,997.23
2018-06-12T07:52:34.822Z,997.25
2018-06-12T07:53:34.860Z,997.23
2018-06-12T07:54:34.874Z,997.24
2018-06-12T07:55:34.910Z,997.23
2018-06-12T07:56:34.925Z,997.26
2018-06-12T07:57:34.953Z,997.24
2018-06-12T07:58:34.975Z,997.23
2018-06-12T07:59:34.996Z,997.22
2018-06-12T08:00:35.035Z,997.22
2018-06-12T08:01:35.053Z,997.23
2018-06-12T08:02:35.096Z,997.24
2018-06-12T08:03:35.101Z,997.25
2018-06-12T08:04:35.125Z,997.26
2018-06-12T08:05:35.146Z,997.23
2018-06-12T08:06:35.191Z,997.20
2018-06-12T08:07:35.201Z,997.24
2018-06-12T08:08:35.226Z,997.26
2018-06-12T08:09:35.249Z,997.23
2018-06-12T08:10:35.274Z,997.24
2018-06-12T08:11:35.298Z,997.26
2018-06-12T08:12:35.337Z,997.21
2018-06-12T08:13:35.351Z,997.23
2018-06-12T08:14:35.376Z,997.24
2018-06-12T08:15:35.402Z,997.28
2018-06-12T08:16:35.419Z,997.27
2018-06-12T08:17:35.452Z,997.26
2018-06-12T08:18:35.495Z,997.24
2018-06-12T08:19:35.503Z,997.26
2018-06-12T08:20:35.531Z,997.29
2018-06-12T08:21:35.557Z,997.28
2018-06-12T08:22:35.592Z,997.28
2018-06-12T08:23:35.597Z,997.29
2018-06-12T08:24:35.641Z,997.28
2018-06-12T08:25:35.653Z,997.28
2018-06-12T08:26:35.675Z,997.29
2018-06-12T08:27:35.699Z,997.29
2018-06-12T08:28:35.721Z,997.28
2018-06-12T08:29:35.815Z,997.32
2018-06-12T08:30:35.788Z,997.30
2018-06-12T08:31:35.798Z,997.34
2018-06-12T08:32:35.824Z,997.32
2018-06-12T08:33:35.855Z,997.31
2018-06-12T08:34:35.876Z,997.31
2018-06-12T08:35:35.905Z,997.35
2018-06-12T08:36:35.926Z,997.35
2018-06-12T08:37:35.955Z,997.35
2018-06-12T08:38:35.974Z,997.36
2018-06-12T08:39:36.005Z,997.37
2018-06-12T08:40:36.031Z,997.37
2018-06-12T08:41:36.045Z,997.37
2018-06-12T08:42:36.071Z,997.42
2018-06-12T08:43:36.095Z,997.39
2018-06-12T08:44:36.126Z,997.40
2018-06-12T08:45:36.150Z,997.43
2018-06-12T08:46:36.175Z,997.42
2018-06-12T08:47:36.199Z,997.45
2018-06-12T08:48:36.223Z,997.46
2018-06-12T08:49:36.247Z,997.44
2018-06-12T08:50:36.273Z,997.44
2018-06-12T08:51:36.299Z,997.47
2018-06-12T08:52:36.326Z,997.46
2018-06-12T08:53:36.349Z,997.43
2018-06-12T08:54:36.371Z,997.45
2018-06-12T08:55:36.401Z,997.49
2018-06-12T08:56:36.429Z,997.46
2018-06-12T08:57:36.457Z,997.46
2018-06-12T08:58:36.479Z,997.43
2018-06-12T08:59:36.503Z,997.46
2018-06-12T09:00:36.526Z,997.51
2018-06-12T09:01:36.550Z,997.49
2018-06-12T09:02:36.609Z,997.47
2018-06-12T09:03:36.600Z,997.49
2018-06-12T09:04:36.624Z,997.48
2018-06-12T09:05:36.644Z,997.47
2018-06-12T09:06:36.672Z,997.47
2018-06-12T09:07:36.700Z,997.44
2018-06-12T09:08:36.723Z,997.47
2018-06-12T09:09:36.753Z,997.44
2018-06-12T09:10:36.770Z,997.42
2018-06-12T09:11:36.822Z,997.44
2018-06-12T09:12:36.824Z,997.40
2018-06-12T09:13:36.844Z,997.40
2018-06-12T09:14:36.871Z,997.43
2018-06-12T09:15:36.897Z,997.41
2018-06-12T09:16:36.928Z,997.39
2018-06-12T09:17:36.955Z,997.39
2018-06-12T09:18:36.968Z,997.43
2018-06-12T09:19:37.002Z,997.40
2018-06-12T09:20:37.020Z,997.42
2018-06-12T09:21:37.048Z,997.46
2018-06-12T09:22:37.077Z,997.45
2018-06-12T09:23:37.093Z,997.41
2018-06-12T09:24:37.121Z,997.43
2018-06-12T09:25:37.145Z,997.41
2018-06-12T09:26:37.169Z,997.39
2018-06-12T09:27:37.194Z,997.39
2018-06-12T09:28:37.256Z,997.40
2018-06-12T09:29:37.277Z,997.46
2018-06-12T09:30:37.270Z,997.43
2018-06-12T09:31:37.292Z,997.47
2018-06-12T09:32:37.319Z,997.48
2018-06-12T09:33:37.347Z,997.50
2018-06-12T09:34:37.366Z,997.49
2018-06-12T09:35:37.397Z,997.53
2018-06-12T09:36:37.433Z,997.53
2018-06-12T09:37:37.449Z,997.53
2018-06-12T09:38:37.487Z,997.57
2018-06-12T09:39:37.495Z,997.58
2018-06-12T09:40:37.521Z,997.62
2018-06-12T09:41:37.548Z,997.56
2018-06-12T09:42:37.569Z,997.62
2018-06-12T09:43:37.592Z,997.59
2018-06-12T09:44:37.621Z,997.62
2018-06-12T09:45:37.650Z,997.60
2018-06-12T09:46:37.675Z,997.60
2018-06-12T09:47:37.702Z,997.62
2018-06-12T09:48:37.721Z,997.66
2018-06-12T09:49:37.751Z,997.68
2018-06-12T09:50:37.775Z,997.67
2018-06-12T09:51:37.794Z,997.67
2018-06-12T09:52:37.820Z,997.69
2018-06-12T09:53:37.917Z,997.69
2018-06-12T09:54:37.875Z,997.67
2018-06-12T09:55:37.905Z,997.69
2018-06-12T09:56:37.978Z,997.67
2018-06-12T09:57:37.991Z,997.65
2018-06-12T09:58:37.974Z,997.67
2018-06-12T09:59:37.990Z,997.66
2018-06-12T10:00:38.025Z,997.70
2018-06-12T10:01:38.053Z,997.68
2018-06-12T10:02:38.067Z,997.69
2018-06-12T10:03:38.092Z,997.71
2018-06-12T10:04:38.132Z,997.71
2018-06-12T10:05:38.144Z,997.69
2018-06-12T10:06:38.171Z,997.67
2018-06-12T10:07:38.226Z,997.69
2018-06-12T10:08:38.239Z,997.66
2018-06-12T10:09:38.245Z,997.65
2018-06-12T10:10:38.271Z,997.65
2018-06-12T10:11:38.292Z,997.67
2018-06-12T10:12:38.335Z,997.65
2018-06-12T10:13:38.487Z,997.68
2018-06-12T10:14:38.367Z,997.72
2018-06-12T10:15:38.392Z,997.76
2018-06-12T10:16:38.419Z,997.78
2018-06-12T10:17:38.440Z,997.79
2018-06-12T10:18:38.463Z,997.75
2018-06-12T10:19:38.490Z,997.76
2018-06-12T10:20:38.669Z,997.71
2018-06-12T10:21:38.540Z,997.73
2018-06-12T10:22:38.570Z,997.71
2018-06-12T10:23:38.587Z,997.73
2018-06-12T10:24:38.615Z,997.71
2018-06-12T10:25:38.672Z,997.71
2018-06-12T10:26:38.661Z,997.72
2018-06-12T10:27:38.734Z,997.78
2018-06-12T10:28:38.718Z,997.79
2018-06-12T10:29:38.745Z,997.79
2018-06-12T10:30:38.779Z,997.79
2018-06-12T10:31:38.814Z,997.81
2018-06-12T10:32:38.817Z,997.82
2018-06-12T10:33:38.837Z,997.80
2018-06-12T10:34:38.862Z,997.80
2018-06-12T10:35:38.886Z,997.81
2018-06-12T10:36:38.916Z,997.81
2018-06-12T10:37:38.939Z,997.81
2018-06-12T10:38:38.959Z,997.78
2018-06-12T10:39:38.983Z,997.77
2018-06-12T10:40:39.008Z,997.80
2018-06-12T10:41:39.037Z,997.79
2018-06-12T10:42:39.059Z,997.83
2018-06-12T10:43:39.097Z,997.78
2018-06-12T10:44:39.118Z,997.79
2018-06-12T10:45:39.139Z,997.78
2018-06-12T10:46:39.395Z,997.79
2018-06-12T10:47:39.189Z,997.80
2018-06-12T10:48:39.208Z,997.80
2018-06-12T10:49:39.237Z,997.80
2018-06-12T10:50:39.266Z,997.77
2018-06-12T10:51:39.288Z,997.81
2018-06-12T10:52:39.318Z,997.79
2018-06-12T10:53:39.336Z,997.77
2018-06-12T10:54:39.377Z,997.77
2018-06-12T10:55:39.390Z,997.77
2018-06-12T10:56:39.406Z,997.72
2018-06-12T10:57:39.626Z,997.76
2018-06-12T10:58:39.471Z,997.74
2018-06-12T10:59:39.481Z,997.77
2018-06-12T11:00:39.512Z,997.75
2018-06-12T11:01:39.541Z,997.77
2018-06-12T11:02:39.557Z,997.74
2018-06-12T11:03:39.607Z,997.72
2018-06-12T11:04:39.615Z,997.72
2018-06-12T11:05:39.681Z,997.73
2018-06-12T11:06:39.662Z,997.67
2018-06-12T11:07:39.913Z,997.66
2018-06-12T11:08:39.711Z,997.65
2018-06-12T11:09:39.737Z,997.59
2018-06-12T11:10:39.761Z,997.59
2018-06-12T11:11:39.782Z,997.58
2018-06-12T11:12:39.807Z,997.54
2018-06-12T11:13:39.833Z,997.50
2018-06-12T11:14:39.859Z,997.50
2018-06-12T11:15:39.926Z,997.44
2018-06-12T11:16:39.912Z,997.41
2018-06-12T11:17:39.936Z,997.38
2018-06-12T11:18:39.989Z,997.37
2018-06-12T11:19:39.998Z,997.36
2018-06-12T11:20:40.011Z,997.41
2018-06-12T11:21:40.056Z,997.42
2018-06-12T11:22:40.069Z,997.45
2018-06-12T11:23:40.082Z,997.50
2018-06-12T11:24:40.116Z,997.51
2018-06-12T11:25:40.137Z,997.56
2018-06-12T11:26:40.163Z,997.55
2018-06-12T11:27:40.188Z,997.55
2018-06-12T11:28:40.216Z,997.57
2018-06-12T11:29:40.426Z,997.55
2018-06-12T11:30:40.267Z,997.57
2018-06-12T11:31:40.289Z,997.56
2018-06-12T11:32:40.329Z,997.58
2018-06-12T11:33:40.339Z,997.58
2018-06-12T11:34:40.364Z,997.58
2018-06-12T11:35:40.387Z,997.59
2018-06-12T11:36:40.431Z,997.63
2018-06-12T11:37:40.452Z,997.63
2018-06-12T11:38:40.482Z,997.64
2018-06-12T11:39:40.491Z,997.61
2018-06-12T11:40:40.521Z,997.59
2018-06-12T11:41:40.540Z,997.59
2018-06-12T11:42:40.570Z,997.52
2018-06-12T11:43:40.603Z,997.51
2018-06-12T11:44:40.619Z,997.54
2018-06-12T11:45:41.198Z,997.48
2018-06-12T11:46:40.665Z,997.49
2018-06-12T11:47:40.692Z,997.49
2018-06-12T11:48:40.712Z,997.46
2018-06-12T11:49:40.747Z,997.44
2018-06-12T11:50:40.766Z,997.49
2018-06-12T11:51:40.786Z,997.46
2018-06-12T11:52:41.480Z,997.49
2018-06-12T11:53:40.839Z,997.48
2018-06-12T11:54:40.868Z,997.53
2018-06-12T11:55:40.895Z,997.49
2018-06-12T11:56:40.918Z,997.51
2018-06-12T11:57:40.948Z,997.49
2018-06-12T11:58:40.974Z,997.48
2018-06-12T11:59:40.996Z,997.46
2018-06-12T12:00:41.025Z,997.42
2018-06-12T12:01:41.052Z,997.41
2018-06-12T12:02:41.089Z,997.39
2018-06-12T12:03:41.104Z,997.39
2018-06-12T12:04:41.116Z,997.39
2018-06-12T12:05:41.145Z,997.38
2018-06-12T12:06:41.202Z,997.40
2018-06-12T12:07:41.214Z,997.37
2018-06-12T12:08:41.230Z,997.38
2018-06-12T12:09:41.246Z,997.34
2018-06-12T12:10:41.265Z,997.35
2018-06-12T12:11:41.305Z,997.26
2018-06-12T12:12:41.325Z,997.32
2018-06-12T12:13:41.359Z,997.33
2018-06-12T12:14:41.369Z,997.31
2018-06-12T12:15:41.394Z,997.27
2018-06-12T12:16:41.422Z,997.31
2018-06-12T12:17:41.482Z,997.28
2018-06-12T12:18:41.470Z,997.24
2018-06-12T12:19:41.497Z,997.24
2018-06-12T12:20:41.522Z,997.22
2018-06-12T12:21:41.541Z,997.24
2018-06-12T12:22:41.576Z,997.26
2018-06-12T12:23:41.600Z,997.26
2018-06-12T12:24:41.620Z,997.23
2018-06-12T12:25:41.646Z,997.21
2018-06-12T12:26:41.676Z,997.16
2018-06-12T12:27:41.700Z,997.14
2018-06-12T12:28:41.743Z,997.12
2018-06-12T12:29:41.751Z,997.17
2018-06-12T12:30:41.770Z,997.15
2018-06-12T12:31:41.801Z,997.18
2018-06-12T12:32:41.828Z,997.12
2018-06-12T12:33:41.852Z,997.13
2018-06-12T12:34:41.874Z,997.10
2018-06-12T12:35:41.897Z,997.10
2018-06-12T12:36:41.921Z,997.11
2018-06-12T12:37:41.957Z,997.09
2018-06-12T12:38:41.987Z,997.15
2018-06-12T12:39:41.997Z,997.13
2018-06-12T12:40:42.021Z,997.11
2018-06-12T12:41:42.056Z,997.14
2018-06-12T12:42:42.136Z,997.09
2018-06-12T12:43:42.178Z,997.05
2018-06-12T12:44:42.121Z,997.08
2018-06-12T12:45:42.153Z,997.08
2018-06-12T12:46:42.173Z,997.08
2018-06-12T12:47:42.198Z,997.12
2018-06-12T12:48:42.229Z,997.08
2018-06-12T12:49:42.249Z,997.11
2018-06-12T12:50:42.271Z,997.12
2018-06-12T12:51:42.314Z,997.12
2018-06-12T12:52:42.328Z,997.12
2018-06-12T12:53:42.352Z,997.13
2018-06-12T12:54:42.387Z,997.11
2018-06-12T12:55:42.398Z,997.14
2018-06-12T12:56:42.430Z,997.16
2018-06-12T12:57:42.450Z,997.12
2018-06-12T12:58:42.474Z,997.11
2018-06-12T12:59:42.502Z,997.15
2018-06-12T13:00:42.526Z,997.20
2018-06-12T13:01:42.549Z,997.14
2018-06-12T13:02:42.575Z,997.17
2018-06-12T13:03:42.600Z,997.12
2018-06-12T13:04:42.627Z,997.11
2018-06-12T13:05:42.657Z,997.14
2018-06-12T13:06:42.677Z,997.16
2018-06-12T13:07:42.699Z,997.20